sensor_id;sensor_type;location;lat;lon;timestamp;pressure;altitude;pressure_sealevel;temperature;humidity
2036;BME280;23642;42.658;23.350;2023-05-01T00:00:56;53593.41;;;-146.31;78.30
2036;BME280;23642;42.658;23.350;2023-05-01T00:03:24;53593.41;;;-146.31;78.60
2036;BME280;23642;42.658;23.350;2023-05-01T00:05:58;53576.91;;;-146.31;78.60
2036;BME280;23642;42.658;23.350;2023-05-01T00:08:26;53537.69;;;-146.31;77.88
2036;BME280;23642;42.658;23.350;2023-05-01T00:10:55;53558.31;;;-146.31;77.81
2036;BME280;23642;42.658;23.350;2023-05-01T00:13:22;53535.63;;;-146.31;77.13
2036;BME280;23642;42.658;23.350;2023-05-01T00:15:49;53568.66;;;-146.31;77.78
2036;BME280;23642;42.658;23.350;2023-05-01T00:18:21;53576.91;;;-146.31;78.49
2036;BME280;23642;42.658;23.350;2023-05-01T00:20:50;53548.00;;;-146.31;79.04
2036;BME280;23642;42.658;23.350;2023-05-01T00:23:17;53556.25;;;-146.31;79.54
2036;BME280;23642;42.658;23.350;2023-05-01T00:25:46;53529.44;;;-146.31;80.85
2036;BME280;23642;42.658;23.350;2023-05-01T00:28:13;53477.81;;;-146.31;82.11
2036;BME280;23642;42.658;23.350;2023-05-01T00:30:42;53442.72;;;-146.31;82.76
2036;BME280;23642;42.658;23.350;2023-05-01T00:33:12;53417.97;;;-146.31;83.04
2036;BME280;23642;42.658;23.350;2023-05-01T00:35:42;53407.63;;;-146.31;84.40
2036;BME280;23642;42.658;23.350;2023-05-01T00:38:09;53353.97;;;-146.31;84.32
2036;BME280;23642;42.658;23.350;2023-05-01T00:40:41;53333.31;;;-146.31;84.03
2036;BME280;23642;42.658;23.350;2023-05-01T00:43:08;53327.13;;;-146.31;83.88
2036;BME280;23642;42.658;23.350;2023-05-01T00:45:36;53296.16;;;-146.31;84.78
2036;BME280;23642;42.658;23.350;2023-05-01T00:48:03;53306.50;;;-146.31;84.61
2036;BME280;23642;42.658;23.350;2023-05-01T00:50:32;53273.47;;;-146.31;84.10
2036;BME280;23642;42.658;23.350;2023-05-01T00:53:01;53252.81;;;-146.31;83.52
2036;BME280;23642;42.658;23.350;2023-05-01T00:55:32;53273.47;;;-146.31;83.44
2036;BME280;23642;42.658;23.350;2023-05-01T00:58:00;53279.66;;;-146.31;84.67
2036;BME280;23642;42.658;23.350;2023-05-01T01:00:27;53246.63;;;-146.31;87.16
2036;BME280;23642;42.658;23.350;2023-05-01T01:03:06;53122.78;;;-146.31;89.94
2036;BME280;23642;42.658;23.350;2023-05-01T01:05:37;53001.00;;;-146.31;91.19
2036;BME280;23642;42.658;23.350;2023-05-01T01:08:16;52949.41;;;-146.31;91.19
2036;BME280;23642;42.658;23.350;2023-05-01T01:10:53;52891.63;;;-146.31;91.94
2036;BME280;23642;42.658;23.350;2023-05-01T01:13:29;52854.47;;;-146.31;91.99
2036;BME280;23642;42.658;23.350;2023-05-01T01:16:04;52782.25;;;-146.31;93.01
2036;BME280;23642;42.658;23.350;2023-05-01T01:18:37;52705.88;;;-146.31;93.26
2036;BME280;23642;42.658;23.350;2023-05-01T01:21:11;52598.56;;;-146.31;93.38
2036;BME280;23642;42.658;23.350;2023-05-01T01:24:02;52549.03;;;-146.31;93.48
2036;BME280;23642;42.658;23.350;2023-05-01T01:26:50;52445.84;;;-146.31;94.79
2036;BME280;23642;42.658;23.350;2023-05-01T01:29:45;52179.66;;;-146.31;96.04
2036;BME280;23642;42.658;23.350;2023-05-01T01:32:39;51927.94;;;-146.31;96.60
2036;BME280;23642;42.658;23.350;2023-05-01T01:35:18;51936.19;;;-146.31;95.24
2036;BME280;23642;42.658;23.350;2023-05-01T01:37:50;51868.09;;;-146.31;95.26
2036;BME280;23642;42.658;23.350;2023-05-01T01:40:22;51797.94;;;-146.31;95.71
2036;BME280;23642;42.658;23.350;2023-05-01T01:42:52;51684.47;;;-146.31;96.49
2036;BME280;23642;42.658;23.350;2023-05-01T01:45:38;51438.97;;;-146.31;97.44
2036;BME280;23642;42.658;23.350;2023-05-01T01:48:08;51146.03;;;-146.31;98.16
2036;BME280;23642;42.658;23.350;2023-05-01T01:50:40;50834.56;;;-146.31;98.51
2036;BME280;23642;42.658;23.350;2023-05-01T01:53:08;50634.47;;;-146.31;99.07
2036;BME280;23642;42.658;23.350;2023-05-01T01:55:44;50494.25;;;-146.31;99.37
2036;BME280;23642;42.658;23.350;2023-05-01T01:58:15;50267.38;;;-146.31;99.99
2036;BME280;23642;42.658;23.350;2023-05-01T02:00:44;50166.31;;;-146.31;100.00
2036;BME280;23642;42.658;23.350;2023-05-01T02:03:12;49980.72;;;-146.31;100.00
2036;BME280;23642;42.658;23.350;2023-05-01T02:05:42;49760.09;;;-146.31;100.00
2036;BME280;23642;42.658;23.350;2023-05-01T02:08:10;49533.28;;;-146.31;100.00
2036;BME280;23642;42.658;23.350;2023-05-01T02:10:40;49388.97;;;-146.31;100.00
2036;BME280;23642;42.658;23.350;2023-05-01T02:13:11;49199.28;;;-146.31;100.00
2036;BME280;23642;42.658;23.350;2023-05-01T02:15:41;49149.81;;;-146.31;100.00
2036;BME280;23642;42.658;23.350;2023-05-01T02:18:09;49172.47;;;-146.31;100.00
2036;BME280;23642;42.658;23.350;2023-05-01T02:20:37;49349.78;;;-146.31;99.95
2036;BME280;23642;42.658;23.350;2023-05-01T02:23:08;49527.09;;;-146.31;99.19
2036;BME280;23642;42.658;23.350;2023-05-01T02:25:41;49537.41;;;-146.31;99.53
2036;BME280;23642;42.658;23.350;2023-05-01T02:28:12;49514.72;;;-146.31;99.79
2036;BME280;23642;42.658;23.350;2023-05-01T02:30:39;49347.72;;;-146.31;100.00
2036;BME280;23642;42.658;23.350;2023-05-01T02:33:08;49133.31;;;-146.31;100.00
2036;BME280;23642;42.658;23.350;2023-05-01T02:35:38;48989.00;;;-146.31;100.00
2036;BME280;23642;42.658;23.350;2023-05-01T02:38:18;48832.34;;;-146.31;100.00
2036;BME280;23642;42.658;23.350;2023-05-01T02:40:51;48809.66;;;-146.31;100.00
2036;BME280;23642;42.658;23.350;2023-05-01T02:43:20;48688.03;;;-146.31;100.00
2036;BME280;23642;42.658;23.350;2023-05-01T02:45:48;48533.44;;;-146.31;100.00
2036;BME280;23642;42.658;23.350;2023-05-01T02:48:22;48341.75;;;-146.31;100.00
2036;BME280;23642;42.658;23.350;2023-05-01T02:50:57;48082.06;;;-146.31;100.00
2036;BME280;23642;42.658;23.350;2023-05-01T02:53:27;47894.53;;;-146.31;100.00
2036;BME280;23642;42.658;23.350;2023-05-01T02:55:55;47690.50;;;-146.31;100.00
2036;BME280;23642;42.658;23.350;2023-05-01T02:58:22;47538.00;;;-146.31;100.00
2036;BME280;23642;42.658;23.350;2023-05-01T03:00:49;47498.88;;;-146.31;100.00
2036;BME280;23642;42.658;23.350;2023-05-01T03:03:16;47587.47;;;-146.31;100.00
2036;BME280;23642;42.658;23.350;2023-05-01T03:05:43;47649.28;;;-146.31;100.00
2036;BME280;23642;42.658;23.350;2023-05-01T03:08:09;47626.63;;;-146.31;100.00
2036;BME280;23642;42.658;23.350;2023-05-01T03:10:40;47527.72;;;-146.31;100.00
2036;BME280;23642;42.658;23.350;2023-05-01T03:13:08;47408.19;;;-146.31;100.00
2036;BME280;23642;42.658;23.350;2023-05-01T03:15:38;47160.94;;;-146.31;100.00
2036;BME280;23642;42.658;23.350;2023-05-01T03:18:05;47014.66;;;-146.31;100.00
2036;BME280;23642;42.658;23.350;2023-05-01T03:20:32;46860.13;;;-146.31;100.00
2036;BME280;23642;42.658;23.350;2023-05-01T03:22:59;46862.19;;;-146.31;100.00
2036;BME280;23642;42.658;23.350;2023-05-01T03:25:27;46856.03;;;-146.31;100.00
2036;BME280;23642;42.658;23.350;2023-05-01T03:27:55;46818.94;;;-146.31;100.00
2036;BME280;23642;42.658;23.350;2023-05-01T03:30:22;46831.28;;;-146.31;100.00
2036;BME280;23642;42.658;23.350;2023-05-01T03:32:49;46804.50;;;-146.31;100.00
2036;BME280;23642;42.658;23.350;2023-05-01T03:35:16;46693.25;;;-146.31;100.00
2036;BME280;23642;42.658;23.350;2023-05-01T03:37:43;46544.94;;;-146.31;100.00
2036;BME280;23642;42.658;23.350;2023-05-01T03:40:10;46419.28;;;-146.31;100.00
2036;BME280;23642;42.658;23.350;2023-05-01T03:42:38;46330.72;;;-146.31;100.00
2036;BME280;23642;42.658;23.350;2023-05-01T03:45:07;46087.66;;;-146.31;100.00
2036;BME280;23642;42.658;23.350;2023-05-01T03:47:34;45830.19;;;-146.31;100.00
2036;BME280;23642;42.658;23.350;2023-05-01T03:50:01;45766.34;;;-146.31;100.00
2036;BME280;23642;42.658;23.350;2023-05-01T03:52:28;45558.34;;;-146.31;100.00
2036;BME280;23642;42.658;23.350;2023-05-01T03:54:54;45362.69;;;-146.31;100.00
2036;BME280;23642;42.658;23.350;2023-05-01T03:57:24;45008.53;;;-146.31;100.00
2036;BME280;23642;42.658;23.350;2023-05-01T03:59:51;44753.22;;;-146.31;100.00
2036;BME280;23642;42.658;23.350;2023-05-01T04:02:20;44518.50;;;-146.31;100.00
2036;BME280;23642;42.658;23.350;2023-05-01T04:04:46;44339.38;;;-146.31;100.00
2036;BME280;23642;42.658;23.350;2023-05-01T04:07:15;44176.75;;;-146.31;100.00
2036;BME280;23642;42.658;23.350;2023-05-01T04:09:42;44003.84;;;-146.31;100.00
2036;BME280;23642;42.658;23.350;2023-05-01T04:12:11;44005.91;;;-146.31;100.00
2036;BME280;23642;42.658;23.350;2023-05-01T04:14:40;43977.09;;;-146.31;100.00
2036;BME280;23642;42.658;23.350;2023-05-01T04:17:09;43946.22;;;-146.31;100.00
2036;BME280;23642;42.658;23.350;2023-05-01T04:19:37;44032.66;;;-146.31;100.00
2036;BME280;23642;42.658;23.350;2023-05-01T04:22:11;44189.09;;;-146.31;100.00
2036;BME280;23642;42.658;23.350;2023-05-01T04:24:38;44257.03;;;-146.31;100.00
2036;BME280;23642;42.658;23.350;2023-05-01T04:27:05;44318.81;;;-146.31;100.00
2036;BME280;23642;42.658;23.350;2023-05-01T04:29:43;44423.78;;;-146.31;100.00
2036;BME280;23642;42.658;23.350;2023-05-01T04:32:12;44769.69;;;-146.31;100.00
2036;BME280;23642;42.658;23.350;2023-05-01T04:34:52;45803.41;;;-146.31;100.00
2036;BME280;23642;42.658;23.350;2023-05-01T04:37:21;46664.44;;;-146.31;100.00
2036;BME280;23642;42.658;23.350;2023-05-01T04:39:48;47140.34;;;-146.31;100.00
2036;BME280;23642;42.658;23.350;2023-05-01T04:42:15;47237.19;;;-146.31;100.00
2036;BME280;23642;42.658;23.350;2023-05-01T04:44:42;47478.25;;;-146.31;100.00
2036;BME280;23642;42.658;23.350;2023-05-01T04:47:11;47622.50;;;-146.31;99.70
2036;BME280;23642;42.658;23.350;2023-05-01T04:49:43;47818.28;;;-146.31;98.50
2036;BME280;23642;42.658;23.350;2023-05-01T04:52:11;47869.78;;;-146.31;98.65
2036;BME280;23642;42.658;23.350;2023-05-01T04:54:41;47919.25;;;-146.31;98.81
2036;BME280;23642;42.658;23.350;2023-05-01T04:57:07;48055.28;;;-146.31;98.24
2036;BME280;23642;42.658;23.350;2023-05-01T04:59:34;48053.22;;;-146.31;98.59
2036;BME280;23642;42.658;23.350;2023-05-01T05:02:01;48133.59;;;-146.31;98.06
2036;BME280;23642;42.658;23.350;2023-05-01T05:04:28;48339.69;;;-146.31;95.94
2036;BME280;23642;42.658;23.350;2023-05-01T05:07:04;48574.66;;;-146.31;94.68
2036;BME280;23642;42.658;23.350;2023-05-01T05:09:32;48871.50;;;-146.31;92.86
2036;BME280;23642;42.658;23.350;2023-05-01T05:11:59;49030.22;;;-146.31;92.55
2036;BME280;23642;42.658;23.350;2023-05-01T05:14:25;49137.44;;;-146.31;91.26
2036;BME280;23642;42.658;23.350;2023-05-01T05:16:52;49339.47;;;-146.31;90.29
2036;BME280;23642;42.658;23.350;2023-05-01T05:19:19;49409.56;;;-146.31;89.46
2036;BME280;23642;42.658;23.350;2023-05-01T05:21:45;49516.78;;;-146.31;89.44
2036;BME280;23642;42.658;23.350;2023-05-01T05:24:12;49574.53;;;-146.31;89.22
2036;BME280;23642;42.658;23.350;2023-05-01T05:26:43;49607.50;;;-146.31;88.27
2036;BME280;23642;42.658;23.350;2023-05-01T05:29:15;49698.25;;;-146.31;87.46
2036;BME280;23642;42.658;23.350;2023-05-01T05:31:42;49854.94;;;-146.31;86.10
2036;BME280;23642;42.658;23.350;2023-05-01T05:34:09;49976.59;;;-146.31;84.98
2036;BME280;23642;42.658;23.350;2023-05-01T05:36:38;50048.78;;;-146.31;85.69
2036;BME280;23642;42.658;23.350;2023-05-01T05:39:05;50057.03;;;-146.31;86.64
2036;BME280;23642;42.658;23.350;2023-05-01T05:41:32;50085.91;;;-146.31;85.47
2036;BME280;23642;42.658;23.350;2023-05-01T05:44:02;50141.59;;;-146.31;85.02
2036;BME280;23642;42.658;23.350;2023-05-01T05:46:31;50203.44;;;-146.31;84.73
2036;BME280;23642;42.658;23.350;2023-05-01T05:49:10;50285.94;;;-146.31;84.67
2036;BME280;23642;42.658;23.350;2023-05-01T05:51:37;50288.00;;;-146.31;85.06
2036;BME280;23642;42.658;23.350;2023-05-01T05:54:05;50296.25;;;-146.31;84.42
2036;BME280;23642;42.658;23.350;2023-05-01T05:56:32;50308.63;;;-146.31;83.70
2036;BME280;23642;42.658;23.350;2023-05-01T05:59:11;50349.88;;;-146.31;82.19
2036;BME280;23642;42.658;23.350;2023-05-01T06:01:38;50424.13;;;-146.31;82.11
2036;BME280;23642;42.658;23.350;2023-05-01T06:04:07;50539.63;;;-146.31;80.32
2036;BME280;23642;42.658;23.350;2023-05-01T06:06:37;50609.75;;;-146.31;79.87
2036;BME280;23642;42.658;23.350;2023-05-01T06:09:04;50700.50;;;-146.31;80.52
2036;BME280;23642;42.658;23.350;2023-05-01T06:11:34;50655.13;;;-146.31;81.07
2036;BME280;23642;42.658;23.350;2023-05-01T06:14:03;50700.50;;;-146.31;79.67
2036;BME280;23642;42.658;23.350;2023-05-01T06:16:34;50725.25;;;-146.31;78.96
2036;BME280;23642;42.658;23.350;2023-05-01T06:19:01;50838.69;;;-146.31;78.68
2036;BME280;23642;42.658;23.350;2023-05-01T06:21:30;50842.81;;;-146.31;78.35
2036;BME280;23642;42.658;23.350;2023-05-01T06:23:58;50882.00;;;-146.31;78.73
2036;BME280;23642;42.658;23.350;2023-05-01T06:26:28;50884.06;;;-146.31;78.50
2036;BME280;23642;42.658;23.350;2023-05-01T06:29:06;50941.81;;;-146.31;78.12
2036;BME280;23642;42.658;23.350;2023-05-01T06:31:38;50966.56;;;-146.31;78.60
2036;BME280;23642;42.658;23.350;2023-05-01T06:34:09;50997.50;;;-146.31;78.26
2036;BME280;23642;42.658;23.350;2023-05-01T06:36:38;51003.69;;;-146.31;77.47
2036;BME280;23642;42.658;23.350;2023-05-01T06:39:07;51030.50;;;-146.31;76.27
2036;BME280;23642;42.658;23.350;2023-05-01T06:41:37;51133.66;;;-146.31;75.82
2036;BME280;23642;42.658;23.350;2023-05-01T06:44:07;51125.41;;;-146.31;76.82
2036;BME280;23642;42.658;23.350;2023-05-01T06:46:45;51160.47;;;-146.31;75.03
2036;BME280;23642;42.658;23.350;2023-05-01T06:49:12;51150.16;;;-146.31;74.75
2036;BME280;23642;42.658;23.350;2023-05-01T06:51:39;51278.06;;;-146.31;75.57
2036;BME280;23642;42.658;23.350;2023-05-01T06:54:11;51263.59;;;-146.31;75.90
2036;BME280;23642;42.658;23.350;2023-05-01T06:56:38;51242.97;;;-146.31;75.58
2036;BME280;23642;42.658;23.350;2023-05-01T06:59:05;51304.88;;;-146.31;75.67
2036;BME280;23642;42.658;23.350;2023-05-01T07:01:36;51296.63;;;-146.31;74.39
2036;BME280;23642;42.658;23.350;2023-05-01T07:04:09;51286.31;;;-146.31;73.88
2036;BME280;23642;42.658;23.350;2023-05-01T07:06:39;51339.94;;;-146.31;72.87
2036;BME280;23642;42.658;23.350;2023-05-01T07:09:17;51393.56;;;-146.31;71.14
2036;BME280;23642;42.658;23.350;2023-05-01T07:11:53;51408.00;;;-146.31;71.22
2036;BME280;23642;42.658;23.350;2023-05-01T07:14:37;51546.25;;;-146.31;71.28
2036;BME280;23642;42.658;23.350;2023-05-01T07:17:05;51558.63;;;-146.31;70.77
2036;BME280;23642;42.658;23.350;2023-05-01T07:19:34;51546.25;;;-146.31;70.96
2036;BME280;23642;42.658;23.350;2023-05-01T07:22:03;51573.06;;;-146.31;69.98
2036;BME280;23642;42.658;23.350;2023-05-01T07:24:34;51620.50;;;-146.31;69.50
2036;BME280;23642;42.658;23.350;2023-05-01T07:27:03;51696.84;;;-146.31;68.00
2036;BME280;23642;42.658;23.350;2023-05-01T07:29:30;51828.88;;;-146.31;69.95
2036;BME280;23642;42.658;23.350;2023-05-01T07:31:59;51725.72;;;-146.31;71.03
2036;BME280;23642;42.658;23.350;2023-05-01T07:34:32;51742.25;;;-146.31;71.49
2036;BME280;23642;42.658;23.350;2023-05-01T07:37:01;51672.09;;;-146.31;70.67
2036;BME280;23642;42.658;23.350;2023-05-01T07:39:29;51690.66;;;-146.31;69.83
2036;BME280;23642;42.658;23.350;2023-05-01T07:42:01;51773.19;;;-146.31;70.14
2036;BME280;23642;42.658;23.350;2023-05-01T07:44:48;51783.50;;;-146.31;69.80
2036;BME280;23642;42.658;23.350;2023-05-01T07:47:16;51721.59;;;-146.31;69.14
2036;BME280;23642;42.658;23.350;2023-05-01T07:49:43;51729.84;;;-146.31;68.08
2036;BME280;23642;42.658;23.350;2023-05-01T07:52:11;51806.19;;;-146.31;66.91
2036;BME280;23642;42.658;23.350;2023-05-01T07:55:03;51849.53;;;-146.31;67.20
2036;BME280;23642;42.658;23.350;2023-05-01T07:58:05;51983.63;;;-146.31;64.12
2036;BME280;23642;42.658;23.350;2023-05-01T08:00:39;51975.38;;;-146.31;62.46
2036;BME280;23642;42.658;23.350;2023-05-01T08:03:16;52012.53;;;-146.31;61.40
2036;BME280;23642;42.658;23.350;2023-05-01T08:06:04;52002.22;;;-146.31;60.53
2036;BME280;23642;42.658;23.350;2023-05-01T08:08:38;51985.69;;;-146.31;60.95
2036;BME280;23642;42.658;23.350;2023-05-01T08:11:22;51985.69;;;-146.31;60.63
2036;BME280;23642;42.658;23.350;2023-05-01T08:14:17;52140.44;;;-146.31;58.49
2036;BME280;23642;42.658;23.350;2023-05-01T08:16:45;52115.69;;;-146.31;58.75
2036;BME280;23642;42.658;23.350;2023-05-01T08:19:18;52152.84;;;-146.31;57.07
2036;BME280;23642;42.658;23.350;2023-05-01T08:21:59;52210.63;;;-146.31;55.55
2036;BME280;23642;42.658;23.350;2023-05-01T08:24:28;52256.00;;;-146.31;54.97
2036;BME280;23642;42.658;23.350;2023-05-01T08:26:55;52270.44;;;-146.31;56.31
2036;BME280;23642;42.658;23.350;2023-05-01T08:29:24;52216.81;;;-146.31;55.40
2036;BME280;23642;42.658;23.350;2023-05-01T08:31:50;52322.03;;;-146.31;53.50
2036;BME280;23642;42.658;23.350;2023-05-01T08:34:21;52375.69;;;-146.31;54.01
2036;BME280;23642;42.658;23.350;2023-05-01T08:36:48;52386.00;;;-146.31;53.81
2036;BME280;23642;42.658;23.350;2023-05-01T08:39:15;52377.75;;;-146.31;53.08
2036;BME280;23642;42.658;23.350;2023-05-01T08:42:00;52503.63;;;-146.31;52.78
2036;BME280;23642;42.658;23.350;2023-05-01T08:44:27;52606.81;;;-146.31;51.38
2036;BME280;23642;42.658;23.350;2023-05-01T08:47:06;52635.72;;;-146.31;51.56
2036;BME280;23642;42.658;23.350;2023-05-01T08:49:38;52627.47;;;-146.31;52.19
2036;BME280;23642;42.658;23.350;2023-05-01T08:52:22;52590.31;;;-146.31;52.09
2036;BME280;23642;42.658;23.350;2023-05-01T08:54:52;52557.28;;;-146.31;52.44
2036;BME280;23642;42.658;23.350;2023-05-01T08:57:23;52654.28;;;-146.31;51.44
2036;BME280;23642;42.658;23.350;2023-05-01T08:59:52;52623.34;;;-146.31;51.70
2036;BME280;23642;42.658;23.350;2023-05-01T09:02:26;52730.66;;;-146.31;50.49
2036;BME280;23642;42.658;23.350;2023-05-01T09:05:05;52718.25;;;-146.31;50.99
2036;BME280;23642;42.658;23.350;2023-05-01T09:07:36;52840.03;;;-146.31;48.58
2036;BME280;23642;42.658;23.350;2023-05-01T09:10:13;52922.59;;;-146.31;50.53
2036;BME280;23642;42.658;23.350;2023-05-01T09:12:56;53003.06;;;-146.31;49.26
2036;BME280;23642;42.658;23.350;2023-05-01T09:15:42;52891.63;;;-146.31;50.01
2036;BME280;23642;42.658;23.350;2023-05-01T09:18:15;52906.06;;;-146.31;49.28
2036;BME280;23642;42.658;23.350;2023-05-01T09:20:45;52813.19;;;-146.31;49.70
2036;BME280;23642;42.658;23.350;2023-05-01T09:23:28;53131.03;;;-146.31;48.13
2036;BME280;23642;42.658;23.350;2023-05-01T09:25:56;53168.19;;;-146.31;48.26
2036;BME280;23642;42.658;23.350;2023-05-01T09:28:44;53207.41;;;-146.31;47.83
2036;BME280;23642;42.658;23.350;2023-05-01T09:31:27;53226.00;;;-146.31;48.91
2036;BME280;23642;42.658;23.350;2023-05-01T09:34:03;53149.63;;;-146.31;49.52
2036;BME280;23642;42.658;23.350;2023-05-01T09:36:32;53164.06;;;-146.31;49.67
2036;BME280;23642;42.658;23.350;2023-05-01T09:39:00;53203.28;;;-146.31;49.33
2036;BME280;23642;42.658;23.350;2023-05-01T09:41:30;53180.59;;;-146.31;50.07
2036;BME280;23642;42.658;23.350;2023-05-01T09:43:59;53124.84;;;-146.31;49.64
2036;BME280;23642;42.658;23.350;2023-05-01T09:46:26;53065.00;;;-146.31;49.39
2036;BME280;23642;42.658;23.350;2023-05-01T09:49:00;53091.81;;;-146.31;48.94
2036;BME280;23642;42.658;23.350;2023-05-01T09:51:30;53143.44;;;-146.31;50.01
2036;BME280;23642;42.658;23.350;2023-05-01T09:53:58;53250.75;;;-146.31;49.98
2036;BME280;23642;42.658;23.350;2023-05-01T09:56:29;53283.78;;;-146.31;49.39
2036;BME280;23642;42.658;23.350;2023-05-01T09:59:17;53211.53;;;-146.31;49.15
2036;BME280;23642;42.658;23.350;2023-05-01T10:01:57;53289.97;;;-146.31;49.41
2036;BME280;23642;42.658;23.350;2023-05-01T10:04:38;53269.34;;;-146.31;49.91
2036;BME280;23642;42.658;23.350;2023-05-01T10:07:13;53261.09;;;-146.31;49.24
2036;BME280;23642;42.658;23.350;2023-05-01T10:09:40;53234.25;;;-146.31;49.63
2036;BME280;23642;42.658;23.350;2023-05-01T10:12:07;53306.50;;;-146.31;49.61
2036;BME280;23642;42.658;23.350;2023-05-01T10:14:49;53407.63;;;-146.31;47.17
2036;BME280;23642;42.658;23.350;2023-05-01T10:17:24;53444.78;;;-146.31;47.06
2036;BME280;23642;42.658;23.350;2023-05-01T10:20:03;53461.31;;;-146.31;46.96
2036;BME280;23642;42.658;23.350;2023-05-01T10:22:49;53506.72;;;-146.31;47.29
2036;BME280;23642;42.658;23.350;2023-05-01T10:25:21;53486.06;;;-146.31;47.21
2036;BME280;23642;42.658;23.350;2023-05-01T10:27:57;53539.75;;;-146.31;47.62
2036;BME280;23642;42.658;23.350;2023-05-01T10:30:30;53593.41;;;-146.31;46.77
2036;BME280;23642;42.658;23.350;2023-05-01T10:33:01;53682.19;;;-146.31;45.19
2036;BME280;23642;42.658;23.350;2023-05-01T10:38:44;53874.19;;;-146.31;42.60
2036;BME280;23642;42.658;23.350;2023-05-01T10:44:39;53820.50;;;-146.31;43.76
2036;BME280;23642;42.658;23.350;2023-05-01T10:47:48;53874.19;;;-146.31;43.31
2036;BME280;23642;42.658;23.350;2023-05-01T10:50:27;53849.41;;;-146.31;43.86
2036;BME280;23642;42.658;23.350;2023-05-01T10:53:18;53905.16;;;-146.31;41.84
2036;BME280;23642;42.658;23.350;2023-05-01T10:55:50;53787.47;;;-146.31;42.71
2036;BME280;23642;42.658;23.350;2023-05-01T11:01:28;53874.19;;;-146.31;43.56
2036;BME280;23642;42.658;23.350;2023-05-01T11:04:04;53851.47;;;-146.31;44.39
2036;BME280;23642;42.658;23.350;2023-05-01T11:07:50;53942.31;;;-146.31;45.49
2036;BME280;23642;42.658;23.350;2023-05-01T11:10:00;53981.53;;;-146.31;45.74
2036;BME280;23642;42.658;23.350;2023-05-01T11:12:51;53923.72;;;-146.31;45.22
2036;BME280;23642;42.658;23.350;2023-05-01T11:15:36;53950.56;;;-146.31;44.56
2036;BME280;23642;42.658;23.350;2023-05-01T11:18:05;54039.34;;;-146.31;45.26
2036;BME280;23642;42.658;23.350;2023-05-01T11:20:56;54074.44;;;-146.31;45.14
2036;BME280;23642;42.658;23.350;2023-05-01T11:23:27;54064.13;;;-146.31;45.46
2036;BME280;23642;42.658;23.350;2023-05-01T11:26:04;54111.59;;;-146.31;44.72
2036;BME280;23642;42.658;23.350;2023-05-01T11:28:32;54144.63;;;-146.31;44.87
2036;BME280;23642;42.658;23.350;2023-05-01T11:31:01;54144.63;;;-146.31;44.90
2036;BME280;23642;42.658;23.350;2023-05-01T11:33:30;54144.63;;;-146.31;45.10
2036;BME280;23642;42.658;23.350;2023-05-01T11:35:59;54140.50;;;-146.31;44.64
2036;BME280;23642;42.658;23.350;2023-05-01T11:38:27;54086.81;;;-146.31;44.35
2036;BME280;23642;42.658;23.350;2023-05-01T11:41:00;54006.31;;;-146.31;44.39
2036;BME280;23642;42.658;23.350;2023-05-01T11:43:41;54031.09;;;-146.31;43.79
2036;BME280;23642;42.658;23.350;2023-05-01T11:46:22;53993.91;;;-146.31;42.96
2036;BME280;23642;42.658;23.350;2023-05-01T11:49:01;54043.47;;;-146.31;43.26
2036;BME280;23642;42.658;23.350;2023-05-01T11:51:38;53923.72;;;-146.31;42.18
2036;BME280;23642;42.658;23.350;2023-05-01T11:54:14;53766.81;;;-146.31;41.88
2036;BME280;23642;42.658;23.350;2023-05-01T11:57:02;53729.66;;;-146.31;41.04
2036;BME280;23642;42.658;23.350;2023-05-01T11:59:32;53804.00;;;-146.31;40.30
2036;BME280;23642;42.658;23.350;2023-05-01T12:02:22;53915.47;;;-146.31;39.62
2036;BME280;23642;42.658;23.350;2023-05-01T12:05:17;53971.22;;;-146.31;39.96
2036;BME280;23642;42.658;23.350;2023-05-01T12:08:07;54045.53;;;-146.31;39.78
2036;BME280;23642;42.658;23.350;2023-05-01T12:10:35;54004.25;;;-146.31;39.64
2036;BME280;23642;42.658;23.350;2023-05-01T12:16:00;53884.50;;;-146.31;36.39
2036;BME280;23642;42.658;23.350;2023-05-01T12:18:47;53907.22;;;-146.31;36.05
2036;BME280;23642;42.658;23.350;2023-05-01T12:21:19;53969.16;;;-146.31;35.53
2036;BME280;23642;42.658;23.350;2023-05-01T12:23:48;54062.06;;;-146.31;36.29
2036;BME280;23642;42.658;23.350;2023-05-01T12:26:32;54124.00;;;-146.31;37.54
2036;BME280;23642;42.658;23.350;2023-05-01T12:29:06;54243.75;;;-146.31;36.64
2036;BME280;23642;42.658;23.350;2023-05-01T12:31:55;54357.31;;;-146.31;36.67
2036;BME280;23642;42.658;23.350;2023-05-01T12:34:35;54475.00;;;-146.31;37.08
2036;BME280;23642;42.658;23.350;2023-05-01T12:37:10;54563.78;;;-146.31;38.67
2036;BME280;23642;42.658;23.350;2023-05-01T12:39:56;54598.88;;;-146.31;38.82
2036;BME280;23642;42.658;23.350;2023-05-01T12:42:23;54603.03;;;-146.31;38.45
2036;BME280;23642;42.658;23.350;2023-05-01T12:45:08;54617.47;;;-146.31;38.29
2036;BME280;23642;42.658;23.350;2023-05-01T12:47:44;54623.66;;;-146.31;38.38
2036;BME280;23642;42.658;23.350;2023-05-01T12:50:18;54656.72;;;-146.31;37.78
2036;BME280;23642;42.658;23.350;2023-05-01T12:52:51;54724.84;;;-146.31;38.75
2036;BME280;23642;42.658;23.350;2023-05-01T12:55:22;54724.84;;;-146.31;37.93
2036;BME280;23642;42.658;23.350;2023-05-01T12:57:55;54625.75;;;-146.31;38.31
2036;BME280;23642;42.658;23.350;2023-05-01T13:00:28;54596.81;;;-146.31;39.75
2036;BME280;23642;42.658;23.350;2023-05-01T13:03:11;54563.78;;;-146.31;39.73
2036;BME280;23642;42.658;23.350;2023-05-01T13:05:55;54539.00;;;-146.31;39.29
2036;BME280;23642;42.658;23.350;2023-05-01T13:08:32;54565.84;;;-146.31;38.97
2036;BME280;23642;42.658;23.350;2023-05-01T13:11:15;54485.31;;;-146.31;39.95
2036;BME280;23642;42.658;23.350;2023-05-01T13:13:43;54543.13;;;-146.31;39.32
2036;BME280;23642;42.658;23.350;2023-05-01T13:16:13;54489.44;;;-146.31;39.45
2036;BME280;23642;42.658;23.350;2023-05-01T13:18:53;54421.31;;;-146.31;40.01